sensor_id;sensor_type;location;lat;lon;timestamp;temperature;humidity
76104;HTU21D;64831;44.870;37.336;2022-11-22T00:00:20;18.19;61.73
76104;HTU21D;64831;44.870;37.336;2022-11-22T00:02:46;18.14;62.02
76104;HTU21D;64831;44.870;37.336;2022-11-22T00:05:13;18.12;62.37
76104;HTU21D;64831;44.870;37.336;2022-11-22T00:07:39;18.10;62.65
76104;HTU21D;64831;44.870;37.336;2022-11-22T00:10:07;18.08;62.89
76104;HTU21D;64831;44.870;37.336;2022-11-22T00:12:33;18.06;63.13
76104;HTU21D;64831;44.870;37.336;2022-11-22T00:14:59;18.04;63.32
76104;HTU21D;64831;44.870;37.336;2022-11-22T00:17:25;18.02;63.66
76104;HTU21D;64831;44.870;37.336;2022-11-22T00:19:51;18.00;63.92
76104;HTU21D;64831;44.870;37.336;2022-11-22T00:22:17;17.99;64.29
76104;HTU21D;64831;44.870;37.336;2022-11-22T00:24:43;17.98;64.47
76104;HTU21D;64831;44.870;37.336;2022-11-22T00:27:11;17.96;64.56
76104;HTU21D;64831;44.870;37.336;2022-11-22T00:29:37;17.95;64.56
76104;HTU21D;64831;44.870;37.336;2022-11-22T00:32:03;17.95;64.71
76104;HTU21D;64831;44.870;37.336;2022-11-22T00:34:29;17.94;64.81
76104;HTU21D;64831;44.870;37.336;2022-11-22T00:36:55;17.95;64.86
76104;HTU21D;64831;44.870;37.336;2022-11-22T00:39:21;17.96;64.89
76104;HTU21D;64831;44.870;37.336;2022-11-22T00:41:46;17.96;64.91
76104;HTU21D;64831;44.870;37.336;2022-11-22T00:44:12;17.96;64.88
76104;HTU21D;64831;44.870;37.336;2022-11-22T00:46:38;17.97;64.85
76104;HTU21D;64831;44.870;37.336;2022-11-22T00:49:04;17.98;64.77
76104;HTU21D;64831;44.870;37.336;2022-11-22T00:51:30;18.00;64.72
76104;HTU21D;64831;44.870;37.336;2022-11-22T00:53:56;18.02;64.72
76104;HTU21D;64831;44.870;37.336;2022-11-22T00:56:22;18.03;64.68
76104;HTU21D;64831;44.870;37.336;2022-11-22T00:58:48;18.03;64.63
76104;HTU21D;64831;44.870;37.336;2022-11-22T01:01:14;18.03;64.60
76104;HTU21D;64831;44.870;37.336;2022-11-22T01:03:40;18.04;64.58
76104;HTU21D;64831;44.870;37.336;2022-11-22T01:06:06;18.03;64.53
76104;HTU21D;64831;44.870;37.336;2022-11-22T01:08:32;18.05;64.44
76104;HTU21D;64831;44.870;37.336;2022-11-22T01:10:59;18.06;64.34
76104;HTU21D;64831;44.870;37.336;2022-11-22T01:13:27;18.07;64.27
76104;HTU21D;64831;44.870;37.336;2022-11-22T01:15:58;18.07;64.21
76104;HTU21D;64831;44.870;37.336;2022-11-22T01:18:24;18.08;64.12
76104;HTU21D;64831;44.870;37.336;2022-11-22T01:20:50;18.09;63.98
76104;HTU21D;64831;44.870;37.336;2022-11-22T01:23:16;18.10;64.00
76104;HTU21D;64831;44.870;37.336;2022-11-22T01:25:42;18.11;64.08
76104;HTU21D;64831;44.870;37.336;2022-11-22T01:28:09;18.10;64.12
76104;HTU21D;64831;44.870;37.336;2022-11-22T01:30:36;18.09;64.12
76104;HTU21D;64831;44.870;37.336;2022-11-22T01:33:02;18.10;64.20
76104;HTU21D;64831;44.870;37.336;2022-11-22T01:35:27;18.09;64.27
76104;HTU21D;64831;44.870;37.336;2022-11-22T01:37:53;18.08;64.35
76104;HTU21D;64831;44.870;37.336;2022-11-22T01:40:19;18.07;64.40
76104;HTU21D;64831;44.870;37.336;2022-11-22T01:42:54;18.05;64.53
76104;HTU21D;64831;44.870;37.336;2022-11-22T01:45:42;18.03;64.58
76104;HTU21D;64831;44.870;37.336;2022-11-22T01:50:39;17.98;64.67
76104;HTU21D;64831;44.870;37.336;2022-11-22T01:53:09;17.97;64.73
76104;HTU21D;64831;44.870;37.336;2022-11-22T01:55:39;17.96;64.82
76104;HTU21D;64831;44.870;37.336;2022-11-22T01:58:06;17.95;64.88
76104;HTU21D;64831;44.870;37.336;2022-11-22T02:00:34;17.95;65.01
76104;HTU21D;64831;44.870;37.336;2022-11-22T02:03:01;17.94;65.14
76104;HTU21D;64831;44.870;37.336;2022-11-22T02:05:31;17.96;65.37
76104;HTU21D;64831;44.870;37.336;2022-11-22T02:08:01;17.93;65.51
76104;HTU21D;64831;44.870;37.336;2022-11-22T02:10:29;17.92;65.79
76104;HTU21D;64831;44.870;37.336;2022-11-22T02:12:58;17.90;66.01
76104;HTU21D;64831;44.870;37.336;2022-11-22T02:15:25;17.90;66.30
76104;HTU21D;64831;44.870;37.336;2022-11-22T02:17:51;17.87;66.49
76104;HTU21D;64831;44.870;37.336;2022-11-22T02:20:17;17.84;66.60
76104;HTU21D;64831;44.870;37.336;2022-11-22T02:22:57;17.81;66.78
76104;HTU21D;64831;44.870;37.336;2022-11-22T02:25:30;17.76;66.86
76104;HTU21D;64831;44.870;37.336;2022-11-22T02:27:57;17.69;67.02
76104;HTU21D;64831;44.870;37.336;2022-11-22T02:30:24;17.66;67.39
76104;HTU21D;64831;44.870;37.336;2022-11-22T02:32:50;17.64;68.10
76104;HTU21D;64831;44.870;37.336;2022-11-22T02:35:21;17.60;68.48
76104;HTU21D;64831;44.870;37.336;2022-11-22T02:37:50;17.54;68.78
76104;HTU21D;64831;44.870;37.336;2022-11-22T02:40:18;17.50;69.06
76104;HTU21D;64831;44.870;37.336;2022-11-22T02:42:51;17.46;69.36
76104;HTU21D;64831;44.870;37.336;2022-11-22T02:45:18;17.41;69.49
76104;HTU21D;64831;44.870;37.336;2022-11-22T02:47:44;17.40;69.81
76104;HTU21D;64831;44.870;37.336;2022-11-22T02:50:10;17.36;69.97
76104;HTU21D;64831;44.870;37.336;2022-11-22T02:52:36;17.34;70.13
76104;HTU21D;64831;44.870;37.336;2022-11-22T02:55:02;17.35;70.40
76104;HTU21D;64831;44.870;37.336;2022-11-22T02:57:28;17.34;70.59
76104;HTU21D;64831;44.870;37.336;2022-11-22T02:59:54;17.33;70.78
76104;HTU21D;64831;44.870;37.336;2022-11-22T03:02:20;17.32;70.84
76104;HTU21D;64831;44.870;37.336;2022-11-22T03:04:46;17.29;70.90
76104;HTU21D;64831;44.870;37.336;2022-11-22T03:07:12;17.30;70.98
76104;HTU21D;64831;44.870;37.336;2022-11-22T03:09:38;17.32;71.09
76104;HTU21D;64831;44.870;37.336;2022-11-22T03:12:04;17.34;71.35
76104;HTU21D;64831;44.870;37.336;2022-11-22T03:14:30;17.37;71.69
76104;HTU21D;64831;44.870;37.336;2022-11-22T03:16:56;17.36;71.96
76104;HTU21D;64831;44.870;37.336;2022-11-22T03:19:22;17.40;72.47
76104;HTU21D;64831;44.870;37.336;2022-11-22T03:21:48;17.37;72.48
76104;HTU21D;64831;44.870;37.336;2022-11-22T03:24:14;17.38;72.52
76104;HTU21D;64831;44.870;37.336;2022-11-22T03:26:40;17.37;72.45
76104;HTU21D;64831;44.870;37.336;2022-11-22T03:29:10;17.36;72.37
76104;HTU21D;64831;44.870;37.336;2022-11-22T03:31:36;17.38;72.41
76104;HTU21D;64831;44.870;37.336;2022-11-22T03:34:02;17.41;72.56
76104;HTU21D;64831;44.870;37.336;2022-11-22T03:36:28;17.37;72.50
76104;HTU21D;64831;44.870;37.336;2022-11-22T03:38:54;17.35;72.64
76104;HTU21D;64831;44.870;37.336;2022-11-22T03:41:20;17.35;73.10
76104;HTU21D;64831;44.870;37.336;2022-11-22T03:43:46;17.33;73.19
76104;HTU21D;64831;44.870;37.336;2022-11-22T03:46:16;17.31;73.18
76104;HTU21D;64831;44.870;37.336;2022-11-22T03:48:44;17.30;73.38
76104;HTU21D;64831;44.870;37.336;2022-11-22T03:51:10;17.25;73.38
76104;HTU21D;64831;44.870;37.336;2022-11-22T03:53:37;17.28;74.12
76104;HTU21D;64831;44.870;37.336;2022-11-22T03:56:03;17.28;74.42
76104;HTU21D;64831;44.870;37.336;2022-11-22T03:58:29;17.23;74.32
76104;HTU21D;64831;44.870;37.336;2022-11-22T04:00:56;17.19;74.25
76104;HTU21D;64831;44.870;37.336;2022-11-22T04:03:22;17.19;74.38
76104;HTU21D;64831;44.870;37.336;2022-11-22T04:05:48;17.19;74.57
76104;HTU21D;64831;44.870;37.336;2022-11-22T04:08:14;17.20;74.61
76104;HTU21D;64831;44.870;37.336;2022-11-22T04:10:40;17.19;74.63
76104;HTU21D;64831;44.870;37.336;2022-11-22T04:13:06;17.18;74.67
76104;HTU21D;64831;44.870;37.336;2022-11-22T04:15:32;17.16;74.57
76104;HTU21D;64831;44.870;37.336;2022-11-22T04:17:58;17.17;74.63
76104;HTU21D;64831;44.870;37.336;2022-11-22T04:20:27;17.14;74.47
76104;HTU21D;64831;44.870;37.336;2022-11-22T04:23:14;17.08;74.33
76104;HTU21D;64831;44.870;37.336;2022-11-22T04:25:43;17.04;74.28
76104;HTU21D;64831;44.870;37.336;2022-11-22T04:28:11;17.04;74.32
76104;HTU21D;64831;44.870;37.336;2022-11-22T04:30:38;17.01;74.31
76104;HTU21D;64831;44.870;37.336;2022-11-22T04:33:30;17.05;74.70
76104;HTU21D;64831;44.870;37.336;2022-11-22T04:35:56;17.04;74.76
76104;HTU21D;64831;44.870;37.336;2022-11-22T04:38:22;17.05;74.80
76104;HTU21D;64831;44.870;37.336;2022-11-22T04:40:49;17.05;74.84
76104;HTU21D;64831;44.870;37.336;2022-11-22T04:43:27;17.07;74.94
76104;HTU21D;64831;44.870;37.336;2022-11-22T11:34:18;15.57;78.27
76104;HTU21D;64831;44.870;37.336;2022-11-22T11:36:45;15.52;78.60
76104;HTU21D;64831;44.870;37.336;2022-11-22T11:39:38;15.49;79.21
76104;HTU21D;64831;44.870;37.336;2022-11-22T11:42:30;15.45;79.28
76104;HTU21D;64831;44.870;37.336;2022-11-22T11:45:28;15.40;79.44
76104;HTU21D;64831;44.870;37.336;2022-11-22T11:47:54;15.23;78.97
76104;HTU21D;64831;44.870;37.336;2022-11-22T11:50:23;15.10;79.04
76104;HTU21D;64831;44.870;37.336;2022-11-22T11:53:03;14.95;79.21
76104;HTU21D;64831;44.870;37.336;2022-11-22T11:55:32;14.85;79.10
76104;HTU21D;64831;44.870;37.336;2022-11-22T11:58:02;14.75;79.30
76104;HTU21D;64831;44.870;37.336;2022-11-22T12:00:35;14.66;79.36
76104;HTU21D;64831;44.870;37.336;2022-11-22T12:03:06;14.58;79.58
76104;HTU21D;64831;44.870;37.336;2022-11-22T12:05:33;14.50;80.02
76104;HTU21D;64831;44.870;37.336;2022-11-22T12:08:02;14.45;80.52
76104;HTU21D;64831;44.870;37.336;2022-11-22T12:13:19;14.48;81.89
76104;HTU21D;64831;44.870;37.336;2022-11-22T12:16:20;14.53;82.88
76104;HTU21D;64831;44.870;37.336;2022-11-22T12:22:13;14.44;82.61
76104;HTU21D;64831;44.870;37.336;2022-11-22T12:24:49;14.40;82.55
76104;HTU21D;64831;44.870;37.336;2022-11-22T12:27:18;14.45;83.86
76104;HTU21D;64831;44.870;37.336;2022-11-22T12:29:44;14.39;81.74
76104;HTU21D;64831;44.870;37.336;2022-11-22T12:32:51;14.11;80.77
76104;HTU21D;64831;44.870;37.336;2022-11-22T12:35:23;13.93;80.79
76104;HTU21D;64831;44.870;37.336;2022-11-22T12:40:39;13.70;81.65
76104;HTU21D;64831;44.870;37.336;2022-11-22T12:43:15;13.65;82.10
76104;HTU21D;64831;44.870;37.336;2022-11-22T12:45:44;13.56;82.29
76104;HTU21D;64831;44.870;37.336;2022-11-22T12:50:53;13.54;82.78
76104;HTU21D;64831;44.870;37.336;2022-11-22T12:53:32;13.58;83.02
76104;HTU21D;64831;44.870;37.336;2022-11-22T13:04:12;13.65;81.67
76104;HTU21D;64831;44.870;37.336;2022-11-22T13:07:02;13.62;81.32
76104;HTU21D;64831;44.870;37.336;2022-11-22T13:09:33;13.63;80.49
76104;HTU21D;64831;44.870;37.336;2022-11-22T13:12:25;13.60;80.08
76104;HTU21D;64831;44.870;37.336;2022-11-22T13:14:54;13.52;80.19
76104;HTU21D;64831;44.870;37.336;2022-11-22T13:17:25;13.51;80.00
76104;HTU21D;64831;44.870;37.336;2022-11-22T13:19:56;13.53;79.72
76104;HTU21D;64831;44.870;37.336;2022-11-22T13:28:17;13.67;80.17
76104;HTU21D;64831;44.870;37.336;2022-11-22T13:33:35;13.70;79.77
76104;HTU21D;64831;44.870;37.336;2022-11-22T13:39:02;13.69;80.01
76104;HTU21D;64831;44.870;37.336;2022-11-22T13:41:38;13.74;79.73
76104;HTU21D;64831;44.870;37.336;2022-11-22T13:44:35;13.71;79.36
76104;HTU21D;64831;44.870;37.336;2022-11-22T13:49:58;13.69;79.51
76104;HTU21D;64831;44.870;37.336;2022-11-22T14:05:23;13.69;79.91
76104;HTU21D;64831;44.870;37.336;2022-11-22T14:07:51;13.69;80.04
76104;HTU21D;64831;44.870;37.336;2022-11-22T14:10:27;13.74;80.12
76104;HTU21D;64831;44.870;37.336;2022-11-22T14:13:29;13.76;80.27
76104;HTU21D;64831;44.870;37.336;2022-11-22T14:32:17;14.00;81.26
76104;HTU21D;64831;44.870;37.336;2022-11-22T14:45:36;14.22;80.78
76104;HTU21D;64831;44.870;37.336;2022-11-22T14:48:14;14.26;80.77
76104;HTU21D;64831;44.870;37.336;2022-11-22T14:50:44;14.34;80.87
76104;HTU21D;64831;44.870;37.336;2022-11-22T14:56:31;14.44;80.65
76104;HTU21D;64831;44.870;37.336;2022-11-22T14:59:16;14.49;79.34
76104;HTU21D;64831;44.870;37.336;2022-11-22T15:02:06;14.48;78.53
76104;HTU21D;64831;44.870;37.336;2022-11-22T15:04:44;14.51;75.31
76104;HTU21D;64831;44.870;37.336;2022-11-22T15:13:35;14.49;73.71
76104;HTU21D;64831;44.870;37.336;2022-11-22T15:16:14;14.48;73.94
76104;HTU21D;64831;44.870;37.336;2022-11-22T15:18:47;14.44;72.46
76104;HTU21D;64831;44.870;37.336;2022-11-22T15:23:49;14.35;71.69
76104;HTU21D;64831;44.870;37.336;2022-11-22T15:26:16;14.33;72.02
76104;HTU21D;64831;44.870;37.336;2022-11-22T15:28:51;14.34;71.77
76104;HTU21D;64831;44.870;37.336;2022-11-22T15:31:34;14.32;71.91
76104;HTU21D;64831;44.870;37.336;2022-11-22T15:34:01;14.35;71.42
76104;HTU21D;64831;44.870;37.336;2022-11-22T15:36:41;14.33;72.37
76104;HTU21D;64831;44.870;37.336;2022-11-22T15:39:12;14.28;73.44
76104;HTU21D;64831;44.870;37.336;2022-11-22T15:41:39;14.24;74.91
76104;HTU21D;64831;44.870;37.336;2022-11-22T15:44:07;13.99;74.89
76104;HTU21D;64831;44.870;37.336;2022-11-22T15:46:38;13.77;74.86
76104;HTU21D;64831;44.870;37.336;2022-11-22T15:49:04;13.54;74.83
76104;HTU21D;64831;44.870;37.336;2022-11-22T15:51:46;13.22;74.97
76104;HTU21D;64831;44.870;37.336;2022-11-22T15:54:15;12.99;75.05
76104;HTU21D;64831;44.870;37.336;2022-11-22T15:56:56;12.79;75.07
76104;HTU21D;64831;44.870;37.336;2022-11-22T15:59:35;12.63;75.25
76104;HTU21D;64831;44.870;37.336;2022-11-22T16:02:17;12.50;75.41
76104;HTU21D;64831;44.870;37.336;2022-11-22T16:04:53;12.40;75.58
76104;HTU21D;64831;44.870;37.336;2022-11-22T16:07:27;12.31;75.63
76104;HTU21D;64831;44.870;37.336;2022-11-22T16:09:57;12.21;75.81
76104;HTU21D;64831;44.870;37.336;2022-11-22T16:12:41;12.13;75.98
76104;HTU21D;64831;44.870;37.336;2022-11-22T16:18:23;11.97;75.58
76104;HTU21D;64831;44.870;37.336;2022-11-22T16:21:02;11.87;75.74
76104;HTU21D;64831;44.870;37.336;2022-11-22T16:23:30;11.76;75.84
76104;HTU21D;64831;44.870;37.336;2022-11-22T16:28:38;11.69;76.33
76104;HTU21D;64831;44.870;37.336;2022-11-22T16:31:15;11.68;76.14
76104;HTU21D;64831;44.870;37.336;2022-11-22T16:33:42;11.63;75.70
76104;HTU21D;64831;44.870;37.336;2022-11-22T16:36:12;11.57;75.62
76104;HTU21D;64831;44.870;37.336;2022-11-22T16:38:39;11.53;75.37
76104;HTU21D;64831;44.870;37.336;2022-11-22T16:43:41;11.40;75.05
76104;HTU21D;64831;44.870;37.336;2022-11-22T16:46:11;11.37;75.02
76104;HTU21D;64831;44.870;37.336;2022-11-22T16:48:38;11.37;74.85
76104;HTU21D;64831;44.870;37.336;2022-11-22T16:51:08;11.32;74.73
76104;HTU21D;64831;44.870;37.336;2022-11-22T16:53:46;11.27;74.40
76104;HTU21D;64831;44.870;37.336;2022-11-22T16:56:20;11.20;74.36
76104;HTU21D;64831;44.870;37.336;2022-11-22T16:58:47;11.15;74.54
76104;HTU21D;64831;44.870;37.336;2022-11-22T17:01:16;11.11;74.50
76104;HTU21D;64831;44.870;37.336;2022-11-22T17:03:44;11.13;74.06
76104;HTU21D;64831;44.870;37.336;2022-11-22T17:06:16;11.07;74.17
76104;HTU21D;64831;44.870;37.336;2022-11-22T17:08:47;11.03;74.38
76104;HTU21D;64831;44.870;37.336;2022-11-22T17:11:15;11.02;74.12
76104;HTU21D;64831;44.870;37.336;2022-11-22T17:13:42;10.97;74.08
76104;HTU21D;64831;44.870;37.336;2022-11-22T17:16:09;10.93;74.20
76104;HTU21D;64831;44.870;37.336;2022-11-22T17:18:36;10.92;74.15
76104;HTU21D;64831;44.870;37.336;2022-11-22T17:23:42;10.87;73.59
76104;HTU21D;64831;44.870;37.336;2022-11-22T17:26:09;10.83;73.43
76104;HTU21D;64831;44.870;37.336;2022-11-22T17:28:35;10.80;73.41
76104;HTU21D;64831;44.870;37.336;2022-11-22T17:31:01;10.78;73.47
76104;HTU21D;64831;44.870;37.336;2022-11-22T17:33:28;10.80;73.13
76104;HTU21D;64831;44.870;37.336;2022-11-22T17:35:54;10.82;72.80
76104;HTU21D;64831;44.870;37.336;2022-11-22T17:38:21;10.81;72.66
76104;HTU21D;64831;44.870;37.336;2022-11-22T17:40:47;10.81;72.64
76104;HTU21D;64831;44.870;37.336;2022-11-22T17:43:14;10.80;72.73
76104;HTU21D;64831;44.870;37.336;2022-11-22T17:45:41;10.81;72.59
76104;HTU21D;64831;44.870;37.336;2022-11-22T17:48:09;10.78;72.66
76104;HTU21D;64831;44.870;37.336;2022-11-22T17:50:35;10.80;72.55
76104;HTU21D;64831;44.870;37.336;2022-11-22T17:53:01;10.79;72.48
76104;HTU21D;64831;44.870;37.336;2022-11-22T17:55:27;10.79;72.42
76104;HTU21D;64831;44.870;37.336;2022-11-22T17:57:53;10.77;72.21
76104;HTU21D;64831;44.870;37.336;2022-11-22T18:00:19;10.75;71.90
76104;HTU21D;64831;44.870;37.336;2022-11-22T18:02:45;10.74;71.77
76104;HTU21D;64831;44.870;37.336;2022-11-22T18:05:11;10.71;71.67
76104;HTU21D;64831;44.870;37.336;2022-11-22T18:07:38;10.71;71.58
76104;HTU21D;64831;44.870;37.336;2022-11-22T18:10:06;10.69;71.71
76104;HTU21D;64831;44.870;37.336;2022-11-22T18:12:33;10.66;71.78
76104;HTU21D;64831;44.870;37.336;2022-11-22T18:15:00;10.66;72.01
76104;HTU21D;64831;44.870;37.336;2022-11-22T18:17:25;10.66;72.00
76104;HTU21D;64831;44.870;37.336;2022-11-22T18:19:51;10.67;71.82
76104;HTU21D;64831;44.870;37.336;2022-11-22T18:22:17;10.67;71.39
76104;HTU21D;64831;44.870;37.336;2022-11-22T18:24:44;10.63;71.28
